createdAt,value
2022-10-26T00:01:07.480Z,96585.88
2022-10-26T00:03:36.594Z,96618.09
2022-10-26T00:06:09.855Z,96639.41
2022-10-26T00:08:38.563Z,96636.56
2022-10-26T00:11:07.227Z,96613.56
2022-10-26T00:13:36.965Z,96591.25
2022-10-26T00:16:09.645Z,96576.75
2022-10-26T00:18:37.704Z,96574.31
2022-10-26T00:21:06.043Z,96561.88
2022-10-26T00:23:34.454Z,96552.75
2022-10-26T00:26:02.505Z,96545.22
2022-10-26T00:28:30.389Z,96548.94
2022-10-26T00:31:03.750Z,96537.06
2022-10-26T00:33:32.399Z,96517.38
2022-10-26T00:36:00.354Z,96524.31
2022-10-26T00:38:28.226Z,96515.38
2022-10-26T00:43:39.737Z,96521.31
2022-10-26T00:46:13.817Z,96524.66
2022-10-26T00:48:45.697Z,96530.50
2022-10-26T00:51:19.039Z,96528.78
2022-10-26T00:53:47.211Z,96523.59
2022-10-26T00:56:14.995Z,96507.63
2022-10-26T00:58:43.674Z,96512.22
2022-10-26T01:01:12.915Z,96509.91
2022-10-26T01:03:40.741Z,96521.38
2022-10-26T01:06:09.541Z,96514.00
2022-10-26T01:08:37.633Z,96535.03
2022-10-26T01:11:06.017Z,96528.50
2022-10-26T01:13:36.618Z,96528.19
2022-10-26T01:16:33.375Z,96543.28
2022-10-26T01:19:27.974Z,96547.38
2022-10-26T01:22:01.777Z,96550.16
2022-10-26T01:25:03.115Z,96554.09
2022-10-26T01:27:33.252Z,96546.28
2022-10-26T01:30:21.852Z,96560.94
2022-10-26T01:33:09.553Z,96567.56
2022-10-26T01:35:43.418Z,96548.28
2022-10-26T01:38:17.413Z,96543.50
2022-10-26T01:40:51.786Z,96573.16
2022-10-26T01:43:21.274Z,96601.88
2022-10-26T01:45:50.140Z,96727.31
2022-10-26T01:48:22.056Z,96752.72
2022-10-26T01:50:53.194Z,96747.06
2022-10-26T01:53:21.645Z,96709.13
2022-10-26T01:55:52.010Z,96712.16
2022-10-26T01:58:55.828Z,96740.38
2022-10-26T02:01:36.525Z,96728.59
2022-10-26T02:04:18.826Z,96717.84
2022-10-26T02:06:50.417Z,96707.56
2022-10-26T02:09:25.946Z,96673.19
2022-10-26T02:11:55.071Z,96680.72
2022-10-26T02:14:29.299Z,96659.63
2022-10-26T02:16:58.766Z,96657.63
2022-10-26T02:19:38.571Z,96641.84
2022-10-26T02:22:14.520Z,96626.16
2022-10-26T02:24:43.696Z,96651.94
2022-10-26T02:27:17.194Z,96674.59
2022-10-26T02:29:45.539Z,96693.13
2022-10-26T02:32:14.718Z,96713.78
2022-10-26T02:34:47.123Z,96721.84
2022-10-26T02:37:17.126Z,96689.03
2022-10-26T02:39:47.958Z,96718.03
2022-10-26T02:42:17.205Z,96717.34
2022-10-26T02:44:50.623Z,96692.22
2022-10-26T02:47:19.754Z,96717.19
2022-10-26T02:49:49.040Z,96724.50
2022-10-26T02:52:24.052Z,96736.53
2022-10-26T02:54:56.154Z,96743.63
2022-10-26T02:57:25.755Z,96746.31
2022-10-26T03:00:08.442Z,96749.09
2022-10-26T03:02:36.277Z,96740.16
2022-10-26T03:05:15.060Z,96753.31
2022-10-26T03:07:42.841Z,96742.56
2022-10-26T03:10:11.529Z,96756.00
2022-10-26T03:12:39.298Z,96716.16
2022-10-26T03:15:07.872Z,96744.88
2022-10-26T03:17:35.569Z,96742.75
2022-10-26T03:20:03.395Z,96739.69
2022-10-26T03:22:32.497Z,96745.06
2022-10-26T03:25:00.448Z,96747.84
2022-10-26T03:27:28.432Z,96753.69
2022-10-26T03:29:56.130Z,96749.47
2022-10-26T03:32:23.855Z,96720.16
2022-10-26T03:34:51.894Z,96740.50
2022-10-26T03:37:19.662Z,96713.16
2022-10-26T03:39:48.729Z,96696.53
2022-10-26T03:42:16.515Z,96683.50
2022-10-26T03:44:44.324Z,96673.00
2022-10-26T03:47:11.977Z,96675.63
2022-10-26T03:49:39.666Z,96686.38
2022-10-26T03:52:07.465Z,96707.78
2022-10-26T03:54:35.184Z,96718.94
2022-10-26T03:57:04.227Z,96701.66
2022-10-26T03:59:31.941Z,96701.59
2022-10-26T04:01:59.661Z,96700.44
2022-10-26T04:04:27.468Z,96694.34
2022-10-26T04:06:55.180Z,96702.31
2022-10-26T04:09:22.840Z,96695.94
2022-10-26T04:11:50.790Z,96714.06
2022-10-26T04:14:19.833Z,96713.69
2022-10-26T04:16:47.558Z,96703.38
2022-10-26T04:19:15.293Z,96716.03
2022-10-26T04:21:42.980Z,96723.31
2022-10-26T04:24:11.627Z,96720.94
2022-10-26T04:26:39.443Z,96720.72
2022-10-26T04:29:07.639Z,96726.56
2022-10-26T04:31:36.806Z,96719.88
2022-10-26T04:34:04.811Z,96730.28
2022-10-26T04:36:32.535Z,96743.47
2022-10-26T04:39:00.301Z,96767.03
2022-10-26T04:41:28.057Z,96766.47
2022-10-26T04:43:55.746Z,96776.44
2022-10-26T04:46:23.464Z,96794.97
2022-10-26T04:48:52.520Z,96800.09
2022-10-26T04:51:20.231Z,96798.06
2022-10-26T04:53:48.305Z,96783.34
2022-10-26T04:56:16.008Z,96786.78
2022-10-26T04:58:43.726Z,96777.75
2022-10-26T05:01:11.491Z,96763.75
2022-10-26T05:03:39.235Z,96752.53
2022-10-26T05:06:11.241Z,96740.72
2022-10-26T05:08:38.886Z,96710.31
2022-10-26T05:11:06.665Z,96686.47
2022-10-26T05:13:34.391Z,96692.31
2022-10-26T05:16:02.125Z,96688.06
2022-10-26T05:18:30.027Z,96669.53
2022-10-26T05:20:57.711Z,96668.69
2022-10-26T05:23:27.001Z,96673.59
2022-10-26T05:25:56.854Z,96659.50
2022-10-26T05:28:24.820Z,96685.72
2022-10-26T05:30:52.511Z,96693.94
2022-10-26T05:33:20.219Z,96691.53
2022-10-26T05:35:48.021Z,96698.34
2022-10-26T05:38:17.305Z,96698.50
2022-10-26T05:40:50.112Z,96710.75
2022-10-26T05:43:18.622Z,96725.34
2022-10-26T05:45:46.711Z,96717.53
2022-10-26T05:48:14.507Z,96711.81
2022-10-26T05:50:42.213Z,96709.03
2022-10-26T05:53:10.066Z,96720.91
2022-10-26T05:55:38.642Z,96716.03
2022-10-26T05:58:11.677Z,96734.41
2022-10-26T06:00:48.359Z,96747.19
2022-10-26T06:03:26.347Z,96754.06
2022-10-26T06:05:56.371Z,96763.56
2022-10-26T06:08:26.338Z,96762.59
2022-10-26T06:10:55.076Z,96773.69
2022-10-26T06:13:24.923Z,96770.34
2022-10-26T06:16:07.363Z,96769.78
2022-10-26T06:18:45.871Z,96756.44
2022-10-26T06:21:31.652Z,96760.19
2022-10-26T06:24:06.460Z,96753.75
2022-10-26T06:26:44.350Z,96767.53
2022-10-26T06:29:25.941Z,96763.53
2022-10-26T06:31:53.701Z,96746.69
2022-10-26T06:34:27.073Z,96772.91
2022-10-26T06:36:55.988Z,96804.25
2022-10-26T06:39:26.839Z,96824.94
2022-10-26T06:41:55.398Z,96806.22
2022-10-26T06:44:25.949Z,96803.84
2022-10-26T06:47:00.658Z,96811.81
2022-10-26T06:49:32.523Z,96806.78
2022-10-26T06:52:02.821Z,96810.53
2022-10-26T06:54:46.421Z,96807.25
2022-10-26T06:57:16.224Z,96812.94
2022-10-26T06:59:49.413Z,96814.00
2022-10-26T07:02:18.595Z,96821.84
2022-10-26T07:04:46.725Z,96806.63
2022-10-26T07:07:16.844Z,96808.59
2022-10-26T07:09:44.731Z,96810.22
2022-10-26T07:12:12.542Z,96797.41
2022-10-26T07:14:40.475Z,96809.47
2022-10-26T07:17:09.997Z,96816.13
2022-10-26T07:19:37.747Z,96823.00
2022-10-26T07:22:05.455Z,96835.13
2022-10-26T07:24:33.327Z,96833.34
2022-10-26T07:27:00.971Z,96834.25
2022-10-26T07:29:28.960Z,96835.63
2022-10-26T07:31:57.026Z,96847.13
2022-10-26T07:34:26.200Z,96851.53
2022-10-26T07:36:54.031Z,96845.50
2022-10-26T07:39:21.704Z,96862.97
2022-10-26T07:41:49.402Z,96855.94
2022-10-26T07:44:17.175Z,96882.06
2022-10-26T07:46:45.053Z,96873.13
2022-10-26T07:49:15.188Z,96860.00
2022-10-26T07:51:46.929Z,96857.06
2022-10-26T07:54:14.762Z,96865.09
2022-10-26T07:56:42.493Z,96864.34
2022-10-26T07:59:13.167Z,96870.59
2022-10-26T08:01:40.952Z,96866.97
2022-10-26T08:04:08.675Z,96864.91
2022-10-26T08:06:36.438Z,96867.94
2022-10-26T08:09:05.707Z,96878.81
2022-10-26T08:11:33.465Z,96880.91
2022-10-26T08:14:01.202Z,96885.16
2022-10-26T08:16:28.913Z,96888.97
2022-10-26T08:18:56.774Z,96890.47
2022-10-26T08:21:36.299Z,96890.81
2022-10-26T08:24:09.400Z,96882.28
2022-10-26T08:26:37.338Z,96899.81
2022-10-26T08:29:05.335Z,96888.22
2022-10-26T08:31:33.022Z,96897.53
2022-10-26T08:34:01.797Z,96898.63
2022-10-26T08:36:29.815Z,96899.16
2022-10-26T08:38:57.536Z,96891.78
2022-10-26T08:41:37.950Z,96895.63
2022-10-26T08:44:21.909Z,96882.91
2022-10-26T08:46:54.194Z,96873.69
2022-10-26T08:49:26.282Z,96888.25
2022-10-26T08:51:56.902Z,96892.88
2022-10-26T08:54:29.091Z,96896.31
2022-10-26T08:56:59.640Z,96898.00
2022-10-26T08:59:31.761Z,96892.72
2022-10-26T09:02:01.886Z,96892.19
2022-10-26T09:04:30.901Z,96890.09
2022-10-26T09:07:03.255Z,96899.44
2022-10-26T09:09:37.820Z,96895.34
2022-10-26T09:12:10.816Z,96893.84
2022-10-26T09:14:43.520Z,96886.50
2022-10-26T09:17:16.973Z,96890.50
2022-10-26T09:20:14.497Z,96884.78
2022-10-26T09:22:45.990Z,96892.75
2022-10-26T09:25:18.886Z,96901.81
2022-10-26T09:27:49.301Z,96906.88
2022-10-26T09:30:18.395Z,96914.59
2022-10-26T09:32:47.982Z,96910.53
2022-10-26T09:35:17.131Z,96919.88
2022-10-26T09:37:47.170Z,96907.78
2022-10-26T09:40:19.169Z,96914.34
2022-10-26T09:42:50.493Z,96910.66
2022-10-26T09:45:21.720Z,96910.00
2022-10-26T09:47:52.873Z,96911.16
2022-10-26T09:50:23.462Z,96903.28
2022-10-26T09:52:51.357Z,96901.09
2022-10-26T09:55:20.874Z,96913.44
2022-10-26T09:57:51.498Z,96906.84
2022-10-26T10:00:20.030Z,96911.50
2022-10-26T10:02:51.488Z,96925.00
2022-10-26T10:08:18.553Z,96917.88
2022-10-26T10:10:56.110Z,96932.69
2022-10-26T10:13:25.919Z,96936.56
2022-10-26T10:15:57.118Z,96928.09
2022-10-26T10:18:25.121Z,96930.63
2022-10-26T10:20:54.217Z,96937.59
2022-10-26T10:23:26.844Z,96940.66
2022-10-26T10:25:59.846Z,96936.63
2022-10-26T10:28:29.356Z,96932.13
2022-10-26T10:30:59.515Z,96930.44
2022-10-26T10:33:34.581Z,96939.38
2022-10-26T10:36:02.628Z,96940.53
2022-10-26T10:38:30.230Z,96941.91
2022-10-26T10:40:59.312Z,96948.38
2022-10-26T10:43:28.481Z,96941.13
2022-10-26T10:45:59.650Z,96947.13
2022-10-26T10:48:28.624Z,96950.34
2022-10-26T10:50:57.668Z,96944.38
2022-10-26T10:53:27.212Z,96960.22
2022-10-26T10:56:12.664Z,96947.53
2022-10-26T10:58:44.949Z,96942.88
2022-10-26T11:01:14.818Z,96956.81
2022-10-26T11:03:51.635Z,96947.47
2022-10-26T11:06:20.949Z,96946.19
2022-10-26T11:08:51.466Z,96949.94
2022-10-26T11:11:21.626Z,96946.09
2022-10-26T11:13:56.214Z,96941.03
2022-10-26T11:16:25.755Z,96949.16
2022-10-26T11:18:55.135Z,96951.06
2022-10-26T11:21:26.917Z,96944.00
2022-10-26T11:23:58.349Z,96947.53
2022-10-26T11:26:28.739Z,96944.84
2022-10-26T11:29:00.641Z,96944.59
2022-10-26T11:31:30.626Z,96954.88
2022-10-26T11:34:06.674Z,96948.91
2022-10-26T11:36:35.131Z,96951.03
2022-10-26T11:39:10.266Z,96952.97
2022-10-26T11:41:41.608Z,96957.31
2022-10-26T11:44:14.889Z,96945.66
2022-10-26T11:46:44.865Z,96948.66
2022-10-26T11:49:15.527Z,96954.06
2022-10-26T11:51:45.906Z,96953.00
2022-10-26T11:54:16.248Z,96961.09
2022-10-26T11:56:47.312Z,96959.22
2022-10-26T11:59:19.938Z,96947.28
2022-10-26T12:01:48.968Z,96955.34
2022-10-26T12:04:17.595Z,96950.34
2022-10-26T12:06:46.479Z,96960.44
2022-10-26T12:09:17.091Z,96952.09
2022-10-26T12:11:47.757Z,96953.97
2022-10-26T12:14:20.880Z,96956.66
2022-10-26T12:16:51.928Z,96961.63
2022-10-26T12:19:22.834Z,96952.44
2022-10-26T12:21:51.772Z,96955.66
2022-10-26T12:24:35.298Z,96959.16
2022-10-26T12:27:03.886Z,96965.06
2022-10-26T12:29:38.247Z,96971.41
2022-10-26T12:32:26.607Z,96969.16
2022-10-26T12:35:04.559Z,96968.53
2022-10-26T12:37:36.567Z,96965.06
2022-10-26T12:40:29.013Z,96970.31
2022-10-26T12:42:56.496Z,96964.28
2022-10-26T12:45:25.431Z,96963.56
2022-10-26T12:48:10.559Z,96961.78
2022-10-26T12:50:48.541Z,96971.06
2022-10-26T12:53:18.287Z,96972.19
2022-10-26T12:56:03.732Z,96981.69
2022-10-26T12:59:01.093Z,96977.91
2022-10-26T13:01:54.944Z,96979.22
2022-10-26T13:04:33.703Z,96977.66
2022-10-26T13:07:13.758Z,96976.00
2022-10-26T13:09:46.042Z,96976.81
2022-10-26T13:12:13.644Z,96978.44
2022-10-26T13:14:51.211Z,96975.16
2022-10-26T13:17:25.531Z,96980.19
2022-10-26T13:19:58.328Z,96972.03
2022-10-26T13:22:25.879Z,96983.97
2022-10-26T13:24:54.585Z,96986.13
2022-10-26T13:27:39.739Z,96976.59
2022-10-26T13:30:36.224Z,96976.91
2022-10-26T13:33:04.408Z,96972.06
2022-10-26T13:35:33.856Z,96977.22
2022-10-26T13:38:08.565Z,96975.81
2022-10-26T13:40:38.210Z,96981.69
2022-10-26T13:43:07.380Z,96979.81
2022-10-26T13:45:38.700Z,96978.69
2022-10-26T13:48:08.947Z,96981.66
2022-10-26T13:50:39.897Z,96972.44
2022-10-26T13:53:09.190Z,96977.28
2022-10-26T13:55:38.937Z,96976.75
2022-10-26T13:58:19.059Z,96977.28
2022-10-26T14:01:02.629Z,96979.34
2022-10-26T14:03:30.241Z,96975.25
2022-10-26T14:05:59.211Z,96976.06
2022-10-26T14:08:26.918Z,96982.53
2022-10-26T14:10:56.137Z,96985.81
2022-10-26T14:13:25.293Z,96989.78
2022-10-26T14:15:53.651Z,96984.66
2022-10-26T14:18:23.029Z,96991.13
2022-10-26T14:20:53.515Z,96987.34
2022-10-26T14:23:29.261Z,96983.59
2022-10-26T14:25:58.943Z,96986.47
2022-10-26T14:28:27.763Z,96985.38
2022-10-26T14:30:57.140Z,96984.03
2022-10-26T14:33:28.511Z,96976.47
2022-10-26T14:35:57.011Z,96985.06
2022-10-26T14:38:26.763Z,96979.63
2022-10-26T14:40:57.235Z,96985.63
2022-10-26T14:43:25.974Z,96985.56
2022-10-26T14:45:54.699Z,96982.59
2022-10-26T14:48:24.401Z,96983.38
2022-10-26T14:51:01.499Z,96980.63
2022-10-26T14:53:32.492Z,96983.31
2022-10-26T14:56:01.784Z,96982.78
2022-10-26T14:58:31.079Z,96986.25
2022-10-26T15:01:17.346Z,96981.13
2022-10-26T15:03:45.763Z,96983.78
2022-10-26T15:06:43.463Z,96982.41
2022-10-26T15:09:29.218Z,96991.28
2022-10-26T15:11:58.175Z,96986.19
2022-10-26T15:14:25.806Z,96984.81
2022-10-26T15:16:54.996Z,96989.66
2022-10-26T15:19:24.034Z,96995.59
2022-10-26T15:21:52.090Z,96997.69
2022-10-26T15:24:27.477Z,96992.78
2022-10-26T15:26:55.177Z,97005.75
2022-10-26T15:29:36.313Z,97010.09
2022-10-26T15:34:33.007Z,97005.97
2022-10-26T15:37:00.560Z,97007.81
2022-10-26T15:39:28.209Z,97015.31
2022-10-26T15:41:55.932Z,97004.22
2022-10-26T15:44:23.518Z,97017.97
2022-10-26T15:46:52.451Z,97016.28
2022-10-26T15:49:21.101Z,97028.41
2022-10-26T15:51:49.322Z,97021.06
2022-10-26T15:54:16.924Z,97025.78
2022-10-26T15:56:44.697Z,97031.59
2022-10-26T15:59:14.795Z,97028.28
2022-10-26T16:01:42.455Z,97041.69
2022-10-26T16:04:12.196Z,97040.03
2022-10-26T16:06:41.029Z,97039.00
2022-10-26T16:09:11.243Z,97040.31
2022-10-26T16:11:38.731Z,97046.44
2022-10-26T16:14:06.412Z,97047.31
2022-10-26T16:16:34.105Z,97047.69
2022-10-26T16:19:25.522Z,97050.63
2022-10-26T16:21:52.883Z,97050.75
2022-10-26T16:24:20.631Z,97050.22
2022-10-26T16:26:48.137Z,97050.88
2022-10-26T16:29:15.692Z,97058.81
2022-10-26T16:31:43.262Z,97059.38
2022-10-26T16:34:10.763Z,97061.81
2022-10-26T16:36:38.778Z,97068.50
2022-10-26T16:39:07.949Z,97071.59
2022-10-26T16:41:35.694Z,97074.88
2022-10-26T16:44:03.218Z,97074.00
2022-10-26T16:46:30.735Z,97079.31
2022-10-26T16:48:59.513Z,97087.13
2022-10-26T16:51:28.401Z,97081.03
2022-10-26T16:53:56.627Z,97079.03
2022-10-26T16:56:26.281Z,97085.03
2022-10-26T16:58:54.137Z,97085.81
2022-10-26T17:01:22.154Z,97089.25
2022-10-26T17:03:50.439Z,97097.75
2022-10-26T17:06:18.437Z,97092.00
2022-10-26T17:08:46.082Z,97097.41
2022-10-26T17:11:15.184Z,97098.69
2022-10-26T17:13:44.587Z,97111.84
2022-10-26T17:16:13.132Z,97116.66
2022-10-26T17:18:41.044Z,97114.44
2022-10-26T17:21:08.755Z,97113.88
2022-10-26T17:23:36.375Z,97126.19
2022-10-26T17:26:04.008Z,97131.47
2022-10-26T17:28:31.951Z,97131.56
2022-10-26T17:31:04.494Z,97134.06
2022-10-26T17:33:33.040Z,97133.75
2022-10-26T17:36:00.623Z,97135.72
2022-10-26T17:38:28.447Z,97144.50
2022-10-26T17:41:00.404Z,97145.81
2022-10-26T17:43:30.448Z,97151.69
2022-10-26T17:45:59.182Z,97160.94
2022-10-26T17:48:28.517Z,97161.81
2022-10-26T17:50:56.876Z,97163.66
2022-10-26T17:53:24.474Z,97172.34
2022-10-26T17:55:52.004Z,97172.34
2022-10-26T17:58:19.584Z,97169.88
2022-10-26T18:00:49.346Z,97180.31
2022-10-26T18:03:17.823Z,97182.66
2022-10-26T18:05:50.875Z,97181.97
2022-10-26T18:08:18.379Z,97185.84
2022-10-26T18:10:49.185Z,97190.28
2022-10-26T18:13:16.810Z,97191.09
2022-10-26T18:15:44.565Z,97195.66
2022-10-26T18:18:12.182Z,97194.59
2022-10-26T18:20:39.739Z,97200.78
2022-10-26T18:23:08.795Z,97204.41
2022-10-26T18:25:37.649Z,97205.00
2022-10-26T18:28:05.607Z,97203.59
2022-10-26T18:30:34.943Z,97201.72
2022-10-26T18:33:02.762Z,97203.81
2022-10-26T18:35:30.549Z,97202.31
2022-10-26T18:37:58.247Z,97203.03
2022-10-26T18:40:27.394Z,97208.41
2022-10-26T18:42:55.000Z,97208.63
2022-10-26T18:45:22.669Z,97212.03
2022-10-26T18:47:50.440Z,97210.28
2022-10-26T18:50:18.291Z,97212.72
2022-10-26T18:52:46.134Z,97213.31
2022-10-26T18:55:13.855Z,97206.31
2022-10-26T18:57:42.899Z,97179.75
2022-10-26T19:00:11.175Z,97220.78
2022-10-26T19:02:38.868Z,97224.53
2022-10-26T19:05:07.269Z,97224.53
2022-10-26T19:07:34.987Z,97222.66
2022-10-26T19:10:02.514Z,97217.16
2022-10-26T19:12:30.165Z,97218.69
2022-10-26T19:14:59.043Z,97226.25
2022-10-26T19:17:27.170Z,97225.06
2022-10-26T19:19:54.703Z,97221.44
2022-10-26T19:22:22.226Z,97226.34
2022-10-26T19:24:49.819Z,97227.63
2022-10-26T19:29:44.812Z,97232.75
2022-10-26T19:32:13.729Z,97228.56
2022-10-26T19:34:41.232Z,97235.56
2022-10-26T19:37:09.468Z,97238.47
2022-10-26T19:39:37.003Z,97239.66
2022-10-26T19:42:04.537Z,97239.66
2022-10-26T19:44:32.074Z,97240.00
2022-10-26T19:46:59.590Z,97242.91
2022-10-26T19:49:28.639Z,97239.06
2022-10-26T19:51:57.919Z,97241.75
2022-10-26T19:54:25.429Z,97239.53
2022-10-26T19:56:52.924Z,97241.03
2022-10-26T19:59:20.533Z,97243.72
2022-10-26T20:01:48.317Z,97244.97
2022-10-26T20:04:15.901Z,97237.75
2022-10-26T20:06:44.942Z,97236.13
2022-10-26T20:09:12.703Z,97246.88
2022-10-26T20:11:42.982Z,97244.28
2022-10-26T20:14:13.706Z,97240.41
2022-10-26T20:16:41.406Z,97236.78
2022-10-26T20:19:08.917Z,97261.53
2022-10-26T20:21:36.452Z,97246.69
2022-10-26T20:24:09.874Z,97249.63
2022-10-26T20:26:37.921Z,97245.88
2022-10-26T20:29:05.439Z,97255.78
2022-10-26T20:31:33.005Z,97245.25
2022-10-26T20:34:00.607Z,97250.03
2022-10-26T20:36:28.125Z,97244.25
2022-10-26T20:38:55.995Z,97250.72
2022-10-26T20:41:25.386Z,97246.84
2022-10-26T20:43:55.695Z,97254.00
2022-10-26T20:46:26.237Z,97254.53
2022-10-26T20:48:54.610Z,97256.19
2022-10-26T20:51:26.522Z,97251.34
2022-10-26T20:54:01.078Z,97254.94
2022-10-26T20:56:30.239Z,97259.16
2022-10-26T20:58:58.741Z,97260.22
2022-10-26T21:01:27.838Z,97247.84
2022-10-26T21:03:56.215Z,97254.25
2022-10-26T21:06:24.030Z,97262.03
2022-10-26T21:08:51.912Z,97256.84
2022-10-26T21:11:20.706Z,97263.50
2022-10-26T21:13:50.183Z,97267.25
2022-10-26T21:16:18.282Z,97269.50
2022-10-26T21:18:46.090Z,97266.34
2022-10-26T21:21:13.652Z,97270.38
2022-10-26T21:23:42.054Z,97272.78
2022-10-26T21:26:09.848Z,97275.47
2022-10-26T21:28:38.144Z,97280.00
2022-10-26T21:31:13.715Z,97279.31
2022-10-26T21:33:41.311Z,97279.31
2022-10-26T21:36:11.506Z,97268.59
2022-10-26T21:38:39.357Z,97267.19
2022-10-26T21:41:07.920Z,97273.00
2022-10-26T21:43:36.092Z,97270.59
2022-10-26T21:46:04.098Z,97269.84
2022-10-26T21:48:42.147Z,97271.75
2022-10-26T21:51:17.738Z,97278.13
2022-10-26T21:53:45.802Z,97282.47
2022-10-26T21:56:15.221Z,97273.66
2022-10-26T21:58:42.817Z,97283.41
2022-10-26T22:01:14.571Z,97280.94
2022-10-26T22:03:46.739Z,97277.22
2022-10-26T22:06:23.009Z,97278.22
2022-10-26T22:08:53.232Z,97282.31
2022-10-26T22:11:24.310Z,97278.22
2022-10-26T22:13:53.762Z,97282.69
2022-10-26T22:16:22.620Z,97279.78
2022-10-26T22:18:52.028Z,97274.84
2022-10-26T22:21:20.339Z,97281.25
2022-10-26T22:23:48.091Z,97277.31
2022-10-26T22:26:17.198Z,97281.47
2022-10-26T22:28:45.609Z,97283.31
2022-10-26T22:31:14.202Z,97278.84
2022-10-26T22:33:41.851Z,97285.28
2022-10-26T22:36:11.935Z,97277.22
2022-10-26T22:38:43.143Z,97273.97
2022-10-26T22:41:11.249Z,97273.06
2022-10-26T22:43:41.064Z,97269.94
2022-10-26T22:46:13.495Z,97268.59
2022-10-26T22:48:45.457Z,97272.75
2022-10-26T22:51:15.770Z,97271.25
2022-10-26T22:53:43.675Z,97274.22
2022-10-26T22:56:12.078Z,97281.50
2022-10-26T22:58:39.820Z,97272.41
2022-10-26T23:01:08.894Z,97277.09
2022-10-26T23:03:40.841Z,97268.09
2022-10-26T23:06:15.125Z,97265.47
2022-10-26T23:08:54.338Z,97266.31
2022-10-26T23:11:25.712Z,97265.09
2022-10-26T23:14:06.963Z,97263.06
2022-10-26T23:16:34.609Z,97261.38
2022-10-26T23:19:02.253Z,97268.22
2022-10-26T23:21:31.797Z,97271.34
2022-10-26T23:24:04.534Z,97261.88
2022-10-26T23:26:34.176Z,97257.94
2022-10-26T23:29:04.524Z,97254.22
2022-10-26T23:31:32.146Z,97256.69
2022-10-26T23:33:59.715Z,97251.53
2022-10-26T23:36:27.390Z,97257.50
2022-10-26T23:38:54.984Z,97260.63
2022-10-26T23:41:23.996Z,97262.31
2022-10-26T23:43:51.706Z,97267.09
2022-10-26T23:46:19.485Z,97278.69
2022-10-26T23:48:47.202Z,97270.81
2022-10-26T23:51:14.730Z,97269.50
2022-10-26T23:53:42.274Z,97263.53
2022-10-26T23:56:09.882Z,97267.25
2022-10-26T23:58:39.071Z,97269.00
